sensor_id;sensor_type;location;lat;lon;timestamp;pressure;altitude;pressure_sealevel;temperature;humidity
71778;BME280;59609;52.430;4.668;2023-03-14T00:00:56;98732.53;;;10.73;94.49
71778;BME280;59609;52.430;4.668;2023-03-14T00:03:22;98731.72;;;10.66;95.40
71778;BME280;59609;52.430;4.668;2023-03-14T00:05:49;98748.88;;;10.68;95.04
71778;BME280;59609;52.430;4.668;2023-03-14T00:08:15;98725.38;;;10.65;95.20
71778;BME280;59609;52.430;4.668;2023-03-14T00:10:41;98730.25;;;10.63;95.77
71778;BME280;59609;52.430;4.668;2023-03-14T00:13:06;98732.81;;;10.58;96.20
71778;BME280;59609;52.430;4.668;2023-03-14T00:15:33;98722.66;;;10.59;96.10
71778;BME280;59609;52.430;4.668;2023-03-14T00:17:59;98722.88;;;10.57;95.62
71778;BME280;59609;52.430;4.668;2023-03-14T00:20:25;98723.13;;;10.49;96.25
71778;BME280;59609;52.430;4.668;2023-03-14T00:22:50;98708.06;;;10.52;96.44
71778;BME280;59609;52.430;4.668;2023-03-14T00:25:15;98727.78;;;10.49;96.38
71778;BME280;59609;52.430;4.668;2023-03-14T00:27:41;98721.41;;;10.48;96.50
71778;BME280;59609;52.430;4.668;2023-03-14T00:30:07;98723.34;;;10.41;97.03
71778;BME280;59609;52.430;4.668;2023-03-14T00:32:35;98737.75;;;10.43;97.42
71778;BME280;59609;52.430;4.668;2023-03-14T00:35:01;98747.34;;;10.34;97.35
71778;BME280;59609;52.430;4.668;2023-03-14T00:37:28;98719.53;;;10.42;97.35
71778;BME280;59609;52.430;4.668;2023-03-14T00:39:53;98723.56;;;10.46;97.26
71778;BME280;59609;52.430;4.668;2023-03-14T00:42:19;98738.78;;;10.49;97.33
71778;BME280;59609;52.430;4.668;2023-03-14T00:44:44;98732.88;;;10.45;97.60
71778;BME280;59609;52.430;4.668;2023-03-14T00:47:09;98725.03;;;10.49;97.59
71778;BME280;59609;52.430;4.668;2023-03-14T00:49:35;98730.31;;;10.50;97.74
71778;BME280;59609;52.430;4.668;2023-03-14T00:52:00;98725.88;;;10.49;98.51
71778;BME280;59609;52.430;4.668;2023-03-14T00:54:26;98714.00;;;10.49;98.27
71778;BME280;59609;52.430;4.668;2023-03-14T00:56:51;98709.19;;;10.38;99.85
71778;BME280;59609;52.430;4.668;2023-03-14T00:59:16;98711.16;;;10.24;100.00
71778;BME280;59609;52.430;4.668;2023-03-14T01:01:42;98718.75;;;10.28;100.00
71778;BME280;59609;52.430;4.668;2023-03-14T01:04:08;98730.00;;;10.27;100.00
71778;BME280;59609;52.430;4.668;2023-03-14T01:06:33;98725.56;;;10.19;100.00
71778;BME280;59609;52.430;4.668;2023-03-14T01:08:59;98741.44;;;10.24;100.00
71778;BME280;59609;52.430;4.668;2023-03-14T01:11:27;98730.03;;;10.07;100.00
71778;BME280;59609;52.430;4.668;2023-03-14T01:13:53;98730.84;;;10.08;100.00
71778;BME280;59609;52.430;4.668;2023-03-14T01:16:20;98726.41;;;10.07;100.00
71778;BME280;59609;52.430;4.668;2023-03-14T01:18:47;98737.66;;;9.99;100.00
71778;BME280;59609;52.430;4.668;2023-03-14T01:21:22;98729.19;;;10.00;100.00
71778;BME280;59609;52.430;4.668;2023-03-14T01:23:48;98721.13;;;9.99;100.00
71778;BME280;59609;52.430;4.668;2023-03-14T01:26:15;98711.84;;;9.93;100.00
71778;BME280;59609;52.430;4.668;2023-03-14T01:28:41;98712.06;;;9.92;100.00
71778;BME280;59609;52.430;4.668;2023-03-14T01:31:09;98725.38;;;9.95;100.00
71778;BME280;59609;52.430;4.668;2023-03-14T01:33:35;98714.38;;;9.95;100.00
71778;BME280;59609;52.430;4.668;2023-03-14T01:36:01;98715.63;;;9.99;100.00
71778;BME280;59609;52.430;4.668;2023-03-14T01:38:28;98700.19;;;9.98;100.00
71778;BME280;59609;52.430;4.668;2023-03-14T01:40:54;98714.59;;;9.93;100.00
71778;BME280;59609;52.430;4.668;2023-03-14T01:43:20;98721.59;;;9.89;100.00
71778;BME280;59609;52.430;4.668;2023-03-14T01:53:59;98712.50;;;9.82;100.00
71778;BME280;59609;52.430;4.668;2023-03-14T01:56:27;98718.22;;;9.80;100.00
71778;BME280;59609;52.430;4.668;2023-03-14T01:58:53;98716.28;;;9.81;100.00
71778;BME280;59609;52.430;4.668;2023-03-14T02:01:21;98702.97;;;9.84;100.00
71778;BME280;59609;52.430;4.668;2023-03-14T02:03:58;98709.13;;;9.87;100.00
71778;BME280;59609;52.430;4.668;2023-03-14T02:06:31;98722.63;;;9.95;100.00
71778;BME280;59609;52.430;4.668;2023-03-14T02:09:00;98705.09;;;9.89;100.00
71778;BME280;59609;52.430;4.668;2023-03-14T02:11:28;98711.63;;;9.95;100.00
71778;BME280;59609;52.430;4.668;2023-03-14T02:13:55;98714.81;;;9.92;100.00
71778;BME280;59609;52.430;4.668;2023-03-14T02:16:21;98699.38;;;9.97;100.00
71778;BME280;59609;52.430;4.668;2023-03-14T02:18:47;98696.81;;;9.96;100.00
71778;BME280;59609;52.430;4.668;2023-03-14T02:24:09;98697.41;;;10.04;100.00
71778;BME280;59609;52.430;4.668;2023-03-14T02:26:41;98704.19;;;10.02;100.00
71778;BME280;59609;52.430;4.668;2023-03-14T02:29:08;98701.03;;;9.98;100.00
71778;BME280;59609;52.430;4.668;2023-03-14T02:31:35;98694.25;;;10.01;100.00
71778;BME280;59609;52.430;4.668;2023-03-14T02:34:01;98697.00;;;10.07;100.00
71778;BME280;59609;52.430;4.668;2023-03-14T02:36:27;98687.94;;;10.00;100.00
71778;BME280;59609;52.430;4.668;2023-03-14T02:39:14;98683.88;;;10.03;100.00
71778;BME280;59609;52.430;4.668;2023-03-14T02:41:43;98683.03;;;10.02;100.00
71778;BME280;59609;52.430;4.668;2023-03-14T02:44:10;98705.25;;;10.01;100.00
71778;BME280;59609;52.430;4.668;2023-03-14T02:46:35;98681.56;;;10.06;100.00
71778;BME280;59609;52.430;4.668;2023-03-14T02:49:03;98671.00;;;10.03;100.00
71778;BME280;59609;52.430;4.668;2023-03-14T02:51:30;98677.75;;;10.07;100.00
71778;BME280;59609;52.430;4.668;2023-03-14T02:53:55;98672.06;;;9.96;100.00
71778;BME280;59609;52.430;4.668;2023-03-14T02:56:21;98649.81;;;10.04;100.00
71778;BME280;59609;52.430;4.668;2023-03-14T02:58:46;98660.16;;;10.15;100.00
71778;BME280;59609;52.430;4.668;2023-03-14T03:01:11;98653.38;;;10.17;100.00
71778;BME280;59609;52.430;4.668;2023-03-14T03:03:37;98650.81;;;10.22;100.00
71778;BME280;59609;52.430;4.668;2023-03-14T03:06:02;98656.91;;;10.31;100.00
71778;BME280;59609;52.430;4.668;2023-03-14T03:08:28;98640.41;;;10.31;100.00
71778;BME280;59609;52.430;4.668;2023-03-14T03:10:54;98643.34;;;10.36;100.00
71778;BME280;59609;52.430;4.668;2023-03-14T03:13:19;98639.72;;;10.42;100.00
71778;BME280;59609;52.430;4.668;2023-03-14T03:15:45;98644.81;;;10.39;100.00
71778;BME280;59609;52.430;4.668;2023-03-14T03:18:11;98656.19;;;10.49;100.00
71778;BME280;59609;52.430;4.668;2023-03-14T03:20:37;98638.59;;;10.56;100.00
71778;BME280;59609;52.430;4.668;2023-03-14T03:23:03;98650.84;;;10.60;100.00
71778;BME280;59609;52.430;4.668;2023-03-14T03:25:28;98645.31;;;10.67;100.00
71778;BME280;59609;52.430;4.668;2023-03-14T03:27:54;98652.91;;;10.65;100.00
71778;BME280;59609;52.430;4.668;2023-03-14T03:30:20;98647.22;;;10.66;100.00
71778;BME280;59609;52.430;4.668;2023-03-14T03:32:45;98654.19;;;10.69;100.00
71778;BME280;59609;52.430;4.668;2023-03-14T03:35:11;98648.19;;;10.78;100.00
71778;BME280;59609;52.430;4.668;2023-03-14T03:37:38;98653.94;;;10.77;100.00
71778;BME280;59609;52.430;4.668;2023-03-14T03:40:04;98653.53;;;10.73;100.00
71778;BME280;59609;52.430;4.668;2023-03-14T03:42:31;98648.41;;;10.77;100.00
71778;BME280;59609;52.430;4.668;2023-03-14T03:44:56;98608.66;;;10.66;100.00
71778;BME280;59609;52.430;4.668;2023-03-14T03:47:22;98657.59;;;10.64;100.00
71778;BME280;59609;52.430;4.668;2023-03-14T03:49:47;98652.75;;;10.60;100.00
71778;BME280;59609;52.430;4.668;2023-03-14T03:52:12;98659.81;;;10.49;100.00
71778;BME280;59609;52.430;4.668;2023-03-14T03:54:38;98652.06;;;10.33;100.00
71778;BME280;59609;52.430;4.668;2023-03-14T03:57:03;98660.53;;;10.25;100.00
71778;BME280;59609;52.430;4.668;2023-03-14T03:59:28;98669.88;;;10.11;100.00
71778;BME280;59609;52.430;4.668;2023-03-14T04:01:54;98651.34;;;9.87;100.00
71778;BME280;59609;52.430;4.668;2023-03-14T04:04:19;98662.78;;;9.83;100.00
71778;BME280;59609;52.430;4.668;2023-03-14T04:06:45;98662.81;;;9.77;100.00
71778;BME280;59609;52.430;4.668;2023-03-14T04:09:10;98663.44;;;9.79;100.00
71778;BME280;59609;52.430;4.668;2023-03-14T04:11:36;98678.69;;;9.68;100.00
71778;BME280;59609;52.430;4.668;2023-03-14T04:14:01;98652.25;;;9.54;100.00
71778;BME280;59609;52.430;4.668;2023-03-14T04:16:27;98662.84;;;9.57;100.00
71778;BME280;59609;52.430;4.668;2023-03-14T04:18:52;98668.34;;;9.57;100.00
71778;BME280;59609;52.430;4.668;2023-03-14T04:21:18;98674.50;;;9.53;100.00
71778;BME280;59609;52.430;4.668;2023-03-14T04:23:44;98677.00;;;9.54;100.00
71778;BME280;59609;52.430;4.668;2023-03-14T04:26:12;98668.34;;;9.57;100.00
71778;BME280;59609;52.430;4.668;2023-03-14T04:28:37;98662.00;;;9.57;100.00
71778;BME280;59609;52.430;4.668;2023-03-14T04:31:12;98669.84;;;9.53;100.00
71778;BME280;59609;52.430;4.668;2023-03-14T04:33:38;98652.06;;;9.49;100.00
71778;BME280;59609;52.430;4.668;2023-03-14T04:36:04;98635.78;;;9.41;100.00
71778;BME280;59609;52.430;4.668;2023-03-14T04:38:30;98650.19;;;9.43;100.00
71778;BME280;59609;52.430;4.668;2023-03-14T04:40:55;98655.44;;;9.51;100.00
71778;BME280;59609;52.430;4.668;2023-03-14T04:43:21;98674.25;;;9.48;100.00
71778;BME280;59609;52.430;4.668;2023-03-14T04:45:46;98650.19;;;9.43;100.00
71778;BME280;59609;52.430;4.668;2023-03-14T04:48:12;98663.94;;;9.43;100.00
71778;BME280;59609;52.430;4.668;2023-03-14T04:50:38;98659.72;;;9.41;100.00
71778;BME280;59609;52.430;4.668;2023-03-14T04:53:04;98664.56;;;9.39;100.00
71778;BME280;59609;52.430;4.668;2023-03-14T04:55:29;98671.94;;;9.38;100.00
71778;BME280;59609;52.430;4.668;2023-03-14T04:57:57;98657.34;;;9.38;100.00
71778;BME280;59609;52.430;4.668;2023-03-14T05:00:22;98663.72;;;9.38;100.00
71778;BME280;59609;52.430;4.668;2023-03-14T05:02:48;98658.63;;;9.35;100.00
71778;BME280;59609;52.430;4.668;2023-03-14T05:05:13;98652.09;;;9.36;100.00
71778;BME280;59609;52.430;4.668;2023-03-14T05:07:38;98660.75;;;9.33;100.00
71778;BME280;59609;52.430;4.668;2023-03-14T05:10:04;98666.88;;;9.48;100.00
71778;BME280;59609;52.430;4.668;2023-03-14T05:12:29;98667.72;;;9.42;100.00
71778;BME280;59609;52.430;4.668;2023-03-14T05:14:55;98685.94;;;9.30;100.00
71778;BME280;59609;52.430;4.668;2023-03-14T05:17:20;98698.38;;;9.06;100.00
71778;BME280;59609;52.430;4.668;2023-03-14T05:19:45;98716.50;;;8.88;100.00
71778;BME280;59609;52.430;4.668;2023-03-14T05:22:11;98728.13;;;8.76;100.00
71778;BME280;59609;52.430;4.668;2023-03-14T05:24:36;98724.25;;;8.64;100.00
71778;BME280;59609;52.430;4.668;2023-03-14T05:27:03;98735.19;;;8.51;100.00
71778;BME280;59609;52.430;4.668;2023-03-14T05:29:28;98736.28;;;8.50;100.00
71778;BME280;59609;52.430;4.668;2023-03-14T05:31:54;98744.94;;;8.54;100.00
71778;BME280;59609;52.430;4.668;2023-03-14T05:34:19;98744.09;;;8.53;100.00
71778;BME280;59609;52.430;4.668;2023-03-14T05:36:44;98747.25;;;8.50;100.00
71778;BME280;59609;52.430;4.668;2023-03-14T05:39:10;98755.47;;;8.50;100.00
71778;BME280;59609;52.430;4.668;2023-03-14T05:41:35;98759.28;;;8.49;100.00
71778;BME280;59609;52.430;4.668;2023-03-14T05:44:01;98768.47;;;8.35;100.00
71778;BME280;59609;52.430;4.668;2023-03-14T05:46:26;98769.94;;;8.31;100.00
71778;BME280;59609;52.430;4.668;2023-03-14T05:48:51;98780.31;;;8.36;100.00
71778;BME280;59609;52.430;4.668;2023-03-14T05:51:17;98782.00;;;8.37;100.00
71778;BME280;59609;52.430;4.668;2023-03-14T05:53:42;98800.03;;;8.24;100.00
71778;BME280;59609;52.430;4.668;2023-03-14T05:56:08;98800.78;;;8.05;100.00
71778;BME280;59609;52.430;4.668;2023-03-14T05:58:33;98818.28;;;8.04;100.00
71778;BME280;59609;52.430;4.668;2023-03-14T06:01:03;98813.69;;;8.11;100.00
71778;BME280;59609;52.430;4.668;2023-03-14T06:03:29;98830.59;;;8.15;100.00
71778;BME280;59609;52.430;4.668;2023-03-14T06:05:54;98832.19;;;8.03;100.00
71778;BME280;59609;52.430;4.668;2023-03-14T06:08:20;98832.09;;;7.90;100.00
71778;BME280;59609;52.430;4.668;2023-03-14T06:10:45;98841.19;;;7.90;100.00
71778;BME280;59609;52.430;4.668;2023-03-14T06:13:11;98846.84;;;7.89;100.00
71778;BME280;59609;52.430;4.668;2023-03-14T06:15:36;98858.03;;;7.87;100.00
71778;BME280;59609;52.430;4.668;2023-03-14T06:18:02;98866.44;;;7.86;100.00
71778;BME280;59609;52.430;4.668;2023-03-14T06:20:27;98870.22;;;7.85;100.00
71778;BME280;59609;52.430;4.668;2023-03-14T06:22:52;98885.13;;;7.75;100.00
71778;BME280;59609;52.430;4.668;2023-03-14T06:25:18;98891.63;;;7.74;100.00
71778;BME280;59609;52.430;4.668;2023-03-14T06:27:43;98895.56;;;7.65;100.00
71778;BME280;59609;52.430;4.668;2023-03-14T06:30:09;98899.78;;;7.68;100.00
71778;BME280;59609;52.430;4.668;2023-03-14T06:32:35;98908.16;;;7.60;100.00
71778;BME280;59609;52.430;4.668;2023-03-14T06:35:00;98908.34;;;7.58;100.00
71778;BME280;59609;52.430;4.668;2023-03-14T06:37:29;98906.78;;;7.49;100.00
71778;BME280;59609;52.430;4.668;2023-03-14T06:39:55;98922.19;;;7.50;100.00
71778;BME280;59609;52.430;4.668;2023-03-14T06:42:21;98925.28;;;7.47;100.00
71778;BME280;59609;52.430;4.668;2023-03-14T06:44:47;98918.66;;;7.56;100.00
71778;BME280;59609;52.430;4.668;2023-03-14T06:47:12;98930.28;;;7.58;100.00
71778;BME280;59609;52.430;4.668;2023-03-14T06:49:38;98938.75;;;7.42;100.00
71778;BME280;59609;52.430;4.668;2023-03-14T06:52:03;98949.44;;;7.37;100.00
71778;BME280;59609;52.430;4.668;2023-03-14T06:54:29;98966.91;;;7.36;100.00
71778;BME280;59609;52.430;4.668;2023-03-14T06:56:54;98974.59;;;7.26;100.00
71778;BME280;59609;52.430;4.668;2023-03-14T06:59:19;98996.13;;;7.14;100.00
71778;BME280;59609;52.430;4.668;2023-03-14T07:01:45;99006.41;;;6.98;100.00
71778;BME280;59609;52.430;4.668;2023-03-14T07:04:10;99025.78;;;6.96;100.00
71778;BME280;59609;52.430;4.668;2023-03-14T07:06:36;99029.53;;;6.81;100.00
71778;BME280;59609;52.430;4.668;2023-03-14T07:09:02;99042.63;;;6.70;100.00
71778;BME280;59609;52.430;4.668;2023-03-14T07:11:27;99062.97;;;6.76;100.00
71778;BME280;59609;52.430;4.668;2023-03-14T07:13:53;99073.00;;;6.61;100.00
71778;BME280;59609;52.430;4.668;2023-03-14T07:16:18;99080.13;;;6.47;100.00
71778;BME280;59609;52.430;4.668;2023-03-14T07:18:43;99098.75;;;6.52;100.00
71778;BME280;59609;52.430;4.668;2023-03-14T07:21:09;99117.78;;;6.45;100.00
71778;BME280;59609;52.430;4.668;2023-03-14T07:23:35;99117.91;;;6.52;100.00
71778;BME280;59609;52.430;4.668;2023-03-14T07:26:01;99139.38;;;6.40;100.00
71778;BME280;59609;52.430;4.668;2023-03-14T07:28:26;99151.22;;;6.33;100.00
71778;BME280;59609;52.430;4.668;2023-03-14T07:30:53;99170.00;;;6.36;100.00
71778;BME280;59609;52.430;4.668;2023-03-14T07:33:20;99178.00;;;6.37;100.00
71778;BME280;59609;52.430;4.668;2023-03-14T07:35:47;99191.34;;;6.40;100.00
71778;BME280;59609;52.430;4.668;2023-03-14T07:38:13;99197.97;;;6.46;100.00
71778;BME280;59609;52.430;4.668;2023-03-14T07:40:39;99206.53;;;6.43;100.00
71778;BME280;59609;52.430;4.668;2023-03-14T07:43:07;99227.22;;;6.37;100.00
71778;BME280;59609;52.430;4.668;2023-03-14T07:45:32;99230.91;;;6.52;100.00
71778;BME280;59609;52.430;4.668;2023-03-14T07:47:57;99245.63;;;6.51;100.00
71778;BME280;59609;52.430;4.668;2023-03-14T07:50:26;99251.53;;;6.63;100.00
71778;BME280;59609;52.430;4.668;2023-03-14T07:52:52;99275.69;;;6.59;100.00
71778;BME280;59609;52.430;4.668;2023-03-14T07:55:17;99280.88;;;6.46;100.00
71778;BME280;59609;52.430;4.668;2023-03-14T07:57:43;99282.13;;;6.66;100.00
71778;BME280;59609;52.430;4.668;2023-03-14T08:00:09;99289.34;;;6.59;100.00
71778;BME280;59609;52.430;4.668;2023-03-14T08:02:35;99290.38;;;6.58;100.00
71778;BME280;59609;52.430;4.668;2023-03-14T08:05:02;99307.75;;;6.73;100.00
71778;BME280;59609;52.430;4.668;2023-03-14T08:07:28;99299.72;;;6.95;100.00
71778;BME280;59609;52.430;4.668;2023-03-14T08:09:53;99313.25;;;6.96;100.00
71778;BME280;59609;52.430;4.668;2023-03-14T08:12:18;99319.25;;;7.14;100.00
71778;BME280;59609;52.430;4.668;2023-03-14T08:14:44;99333.81;;;7.15;100.00
71778;BME280;59609;52.430;4.668;2023-03-14T08:17:09;99342.38;;;7.12;100.00
71778;BME280;59609;52.430;4.668;2023-03-14T08:19:34;99367.28;;;7.02;100.00
71778;BME280;59609;52.430;4.668;2023-03-14T08:22:00;99370.13;;;7.09;100.00
71778;BME280;59609;52.430;4.668;2023-03-14T08:24:25;99394.75;;;7.17;100.00
71778;BME280;59609;52.430;4.668;2023-03-14T08:26:51;99393.88;;;7.16;100.00
71778;BME280;59609;52.430;4.668;2023-03-14T08:29:16;99408.47;;;7.09;100.00
71778;BME280;59609;52.430;4.668;2023-03-14T08:31:41;99415.56;;;7.26;100.00
71778;BME280;59609;52.430;4.668;2023-03-14T08:34:07;99419.69;;;7.22;100.00
71778;BME280;59609;52.430;4.668;2023-03-14T08:36:33;99433.03;;;7.25;100.00
71778;BME280;59609;52.430;4.668;2023-03-14T08:38:58;99425.31;;;7.29;100.00
71778;BME280;59609;52.430;4.668;2023-03-14T08:41:23;99442.84;;;7.42;100.00
71778;BME280;59609;52.430;4.668;2023-03-14T08:43:49;99454.34;;;7.38;100.00
71778;BME280;59609;52.430;4.668;2023-03-14T08:46:14;99483.28;;;7.40;100.00
71778;BME280;59609;52.430;4.668;2023-03-14T08:48:40;99486.69;;;7.42;100.00
71778;BME280;59609;52.430;4.668;2023-03-14T08:51:06;99509.69;;;7.33;100.00
71778;BME280;59609;52.430;4.668;2023-03-14T08:53:32;99517.47;;;6.66;100.00
71778;BME280;59609;52.430;4.668;2023-03-14T08:55:57;99517.66;;;6.57;100.00
71778;BME280;59609;52.430;4.668;2023-03-14T08:58:22;99535.47;;;6.37;100.00
71778;BME280;59609;52.430;4.668;2023-03-14T09:00:49;99555.47;;;6.21;100.00
71778;BME280;59609;52.430;4.668;2023-03-14T09:03:14;99562.13;;;6.10;100.00
71778;BME280;59609;52.430;4.668;2023-03-14T09:05:40;99572.91;;;6.12;100.00
71778;BME280;59609;52.430;4.668;2023-03-14T09:08:05;99585.88;;;6.18;100.00
71778;BME280;59609;52.430;4.668;2023-03-14T09:10:31;99592.56;;;6.24;100.00
71778;BME280;59609;52.430;4.668;2023-03-14T09:12:56;99594.25;;;6.41;100.00
71778;BME280;59609;52.430;4.668;2023-03-14T09:15:23;99603.50;;;6.56;100.00
71778;BME280;59609;52.430;4.668;2023-03-14T09:17:49;99624.72;;;6.70;100.00
71778;BME280;59609;52.430;4.668;2023-03-14T09:20:14;99625.91;;;6.76;100.00
71778;BME280;59609;52.430;4.668;2023-03-14T09:22:40;99630.28;;;7.01;100.00
71778;BME280;59609;52.430;4.668;2023-03-14T09:25:06;99635.25;;;6.97;100.00
71778;BME280;59609;52.430;4.668;2023-03-14T09:27:31;99635.25;;;7.13;100.00
71778;BME280;59609;52.430;4.668;2023-03-14T09:29:57;99654.19;;;7.39;100.00
71778;BME280;59609;52.430;4.668;2023-03-14T09:32:22;99639.19;;;7.11;100.00
71778;BME280;59609;52.430;4.668;2023-03-14T09:34:47;99648.41;;;7.18;100.00
71778;BME280;59609;52.430;4.668;2023-03-14T09:37:13;99664.13;;;7.24;100.00
71778;BME280;59609;52.430;4.668;2023-03-14T09:39:40;99660.22;;;7.18;98.45
71778;BME280;59609;52.430;4.668;2023-03-14T09:42:07;99684.47;;;7.38;98.71
71778;BME280;59609;52.430;4.668;2023-03-14T09:44:39;99703.84;;;7.28;97.84
71778;BME280;59609;52.430;4.668;2023-03-14T09:47:11;99710.72;;;7.16;97.31
71778;BME280;59609;52.430;4.668;2023-03-14T09:49:39;99710.88;;;7.14;96.10
71778;BME280;59609;52.430;4.668;2023-03-14T09:52:23;99731.44;;;7.02;93.95
71778;BME280;59609;52.430;4.668;2023-03-14T09:54:52;99739.84;;;7.17;94.33
71778;BME280;59609;52.430;4.668;2023-03-14T09:57:21;99751.78;;;7.24;93.51
71778;BME280;59609;52.430;4.668;2023-03-14T09:59:48;99757.59;;;7.45;94.64
71778;BME280;59609;52.430;4.668;2023-03-14T10:02:24;99776.47;;;7.32;91.26
71778;BME280;59609;52.430;4.668;2023-03-14T10:04:51;99778.50;;;7.38;90.63
71778;BME280;59609;52.430;4.668;2023-03-14T10:07:21;99791.19;;;7.39;90.90
71778;BME280;59609;52.430;4.668;2023-03-14T10:09:50;99792.19;;;7.46;89.84
71778;BME280;59609;52.430;4.668;2023-03-14T10:12:17;99797.69;;;7.22;88.92
71778;BME280;59609;52.430;4.668;2023-03-14T10:14:51;99812.25;;;7.22;87.68
71778;BME280;59609;52.430;4.668;2023-03-14T10:17:18;99816.88;;;7.46;84.76
71778;BME280;59609;52.430;4.668;2023-03-14T10:19:56;99822.09;;;7.88;84.18
71778;BME280;59609;52.430;4.668;2023-03-14T10:22:24;99833.00;;;8.20;85.32
71778;BME280;59609;52.430;4.668;2023-03-14T10:24:55;99849.38;;;7.90;83.64
71778;BME280;59609;52.430;4.668;2023-03-14T10:27:33;99856.38;;;7.92;80.94
71778;BME280;59609;52.430;4.668;2023-03-14T10:30:06;99861.19;;;7.90;78.97
71778;BME280;59609;52.430;4.668;2023-03-14T10:32:35;99878.63;;;8.05;81.36
71778;BME280;59609;52.430;4.668;2023-03-14T10:38:00;99895.97;;;8.06;79.52
71778;BME280;59609;52.430;4.668;2023-03-14T10:40:38;99913.75;;;8.26;78.00
71778;BME280;59609;52.430;4.668;2023-03-14T10:43:07;99920.63;;;8.30;75.76
71778;BME280;59609;52.430;4.668;2023-03-14T10:45:40;99937.06;;;8.38;75.20
71778;BME280;59609;52.430;4.668;2023-03-14T10:50:48;99950.72;;;8.70;73.80
71778;BME280;59609;52.430;4.668;2023-03-14T10:53:17;99957.34;;;8.84;74.48
71778;BME280;59609;52.430;4.668;2023-03-14T10:55:44;99961.19;;;9.06;74.88
71778;BME280;59609;52.430;4.668;2023-03-14T11:01:36;99982.25;;;8.74;68.69
71778;BME280;59609;52.430;4.668;2023-03-14T11:03:36;99987.66;;;9.07;71.15
71778;BME280;59609;52.430;4.668;2023-03-14T11:11:23;100003.16;;;8.92;65.69
71778;BME280;59609;52.430;4.668;2023-03-14T11:16:57;100027.81;;;9.08;62.56
71778;BME280;59609;52.430;4.668;2023-03-14T11:19:42;100028.75;;;9.31;64.76
71778;BME280;59609;52.430;4.668;2023-03-14T11:27:34;100052.47;;;9.63;63.78
71778;BME280;59609;52.430;4.668;2023-03-14T11:35:55;100094.47;;;9.10;62.88
71778;BME280;59609;52.430;4.668;2023-03-14T11:40:57;100113.59;;;9.34;61.79
71778;BME280;59609;52.430;4.668;2023-03-14T11:43:30;100112.06;;;9.31;58.82
71778;BME280;59609;52.430;4.668;2023-03-14T11:46:07;100118.00;;;9.59;60.40
71778;BME280;59609;52.430;4.668;2023-03-14T11:49:10;100131.06;;;9.57;57.55
71778;BME280;59609;52.430;4.668;2023-03-14T11:51:36;100133.47;;;9.91;56.89
71778;BME280;59609;52.430;4.668;2023-03-14T11:56:46;100149.16;;;9.91;56.78
71778;BME280;59609;52.430;4.668;2023-03-14T11:59:21;100159.19;;;9.67;56.29
71778;BME280;59609;52.430;4.668;2023-03-14T12:06:56;100171.06;;;8.97;55.78
71778;BME280;59609;52.430;4.668;2023-03-14T12:09:23;100176.25;;;9.55;53.45
71778;BME280;59609;52.430;4.668;2023-03-14T12:11:55;100182.63;;;9.55;53.35
71778;BME280;59609;52.430;4.668;2023-03-14T12:14:33;100179.59;;;9.81;53.55
71778;BME280;59609;52.430;4.668;2023-03-14T12:17:06;100206.75;;;9.84;52.03
71778;BME280;59609;52.430;4.668;2023-03-14T12:19:37;100204.19;;;9.82;52.47
71778;BME280;59609;52.430;4.668;2023-03-14T12:24:37;100207.72;;;9.44;51.90
71778;BME280;59609;52.430;4.668;2023-03-14T12:27:05;100222.50;;;9.51;54.31
71778;BME280;59609;52.430;4.668;2023-03-14T12:29:32;100227.63;;;9.70;54.76
71778;BME280;59609;52.430;4.668;2023-03-14T12:37:10;100237.66;;;10.02;54.88
71778;BME280;59609;52.430;4.668;2023-03-14T12:39:59;100232.25;;;9.70;53.33
71778;BME280;59609;52.430;4.668;2023-03-14T12:45:29;100260.34;;;9.33;54.00
71778;BME280;59609;52.430;4.668;2023-03-14T12:50:33;100255.03;;;9.95;52.42
71778;BME280;59609;52.430;4.668;2023-03-14T12:55:57;100270.97;;;9.60;50.43
71778;BME280;59609;52.430;4.668;2023-03-14T13:01:23;100275.88;;;9.89;50.49
71778;BME280;59609;52.430;4.668;2023-03-14T13:03:55;100293.34;;;10.12;50.86
71778;BME280;59609;52.430;4.668;2023-03-14T13:06:48;100292.91;;;10.40;50.46
71778;BME280;59609;52.430;4.668;2023-03-14T13:12:02;100311.56;;;10.21;49.35
71778;BME280;59609;52.430;4.668;2023-03-14T13:14:31;100316.22;;;10.60;49.02
71778;BME280;59609;52.430;4.668;2023-03-14T13:17:01;100323.59;;;10.67;48.39
71778;BME280;59609;52.430;4.668;2023-03-14T13:19:29;100325.75;;;10.41;45.92
71778;BME280;59609;52.430;4.668;2023-03-14T13:22:19;100330.69;;;10.23;45.26
71778;BME280;59609;52.430;4.668;2023-03-14T13:24:45;100334.31;;;10.54;45.89
71778;BME280;59609;52.430;4.668;2023-03-14T13:27:17;100342.91;;;10.59;45.29
71778;BME280;59609;52.430;4.668;2023-03-14T13:29:44;100349.72;;;10.32;47.91
71778;BME280;59609;52.430;4.668;2023-03-14T13:32:17;100351.59;;;10.40;47.22
71778;BME280;59609;52.430;4.668;2023-03-14T13:34:44;100358.09;;;9.68;48.55
71778;BME280;59609;52.430;4.668;2023-03-14T13:37:20;100365.16;;;9.30;48.39
71778;BME280;59609;52.430;4.668;2023-03-14T13:39:55;100375.09;;;9.07;50.77
71778;BME280;59609;52.430;4.668;2023-03-14T13:42:21;100380.94;;;9.20;51.42
71778;BME280;59609;52.430;4.668;2023-03-14T13:44:51;100394.91;;;8.76;54.33
71778;BME280;59609;52.430;4.668;2023-03-14T13:47:20;100398.72;;;8.92;54.74
71778;BME280;59609;52.430;4.668;2023-03-14T13:49:46;100414.34;;;8.91;53.89
71778;BME280;59609;52.430;4.668;2023-03-14T13:54:59;100411.72;;;9.56;52.28
71778;BME280;59609;52.430;4.668;2023-03-14T13:57:26;100409.50;;;9.83;51.04
71778;BME280;59609;52.430;4.668;2023-03-14T14:00:00;100417.41;;;10.27;47.83
71778;BME280;59609;52.430;4.668;2023-03-14T14:02:26;100426.31;;;10.29;49.28
71778;BME280;59609;52.430;4.668;2023-03-14T14:04:52;100433.41;;;10.07;49.69
71778;BME280;59609;52.430;4.668;2023-03-14T14:07:18;100439.06;;;9.57;47.02
71778;BME280;59609;52.430;4.668;2023-03-14T14:09:46;100451.56;;;9.36;48.04
71778;BME280;59609;52.430;4.668;2023-03-14T14:12:17;100463.75;;;9.25;47.50
71778;BME280;59609;52.430;4.668;2023-03-14T14:17:18;100467.91;;;9.37;46.86